Time;durP1;ratioP1;P1;durP2;ratioP2;P2;SDS_P1;SDS_P2;PMS_P1;PMS_P2;Temp;Humidity;BMP_temperature;BMP_pressure;BME280_temperature;BME280_humidity;BME280_pressure;Samples;Min_cycle;Max_cycle;Signal;HPM_P1;HPM_P2
2021/10/24 00:02:00;;;;;;;13.07;5.80;;;;;;;;;;5048815;28;20648;-71
2021/10/24 00:04:45;;;;;;;11.95;6.85;;;;;;;;;;5048727;28;20021;-74
2021/10/24 00:07:30;;;;;;;11.25;6.20;;;;;;;;;;5060237;28;20499;-70
2021/10/24 00:10:15;;;;;;;12.30;6.85;;;;;;;;;;5058944;28;20090;-72
2021/10/24 00:13:01;;;;;;;10.43;6.00;;;;;;;;;;5067906;28;20627;-70
2021/10/24 00:15:46;;;;;;;11.32;6.57;;;;;;;;;;5066754;28;20487;-70
2021/10/24 00:18:31;;;;;;;11.02;5.70;;;;;;;;;;5068156;28;20063;-60
2021/10/24 00:21:17;;;;;;;12.77;5.90;;;;;;;;;;5060129;28;20021;-60
2021/10/24 00:24:02;;;;;;;10.20;6.18;;;;;;;;;;5061938;28;20052;-59
2021/10/24 00:26:47;;;;;;;10.45;6.28;;;;;;;;;;5058520;28;20021;-60
2021/10/24 00:29:33;;;;;;;9.25;5.53;;;;;;;;;;5067686;28;20047;-61
2021/10/24 00:32:18;;;;;;;10.60;6.00;;;;;;;;;;5066598;28;20115;-59
2021/10/24 00:35:04;;;;;;;10.18;6.03;;;;;;;;;;5067908;28;20083;-69
2021/10/24 00:37:49;;;;;;;7.80;5.32;;;;;;;;;;5057562;28;20070;-62
2021/10/24 00:40:35;;;;;;;11.48;5.35;;;;;;;;;;5067398;28;20453;-66
2021/10/24 00:43:20;;;;;;;10.63;5.93;;;;;;;;;;5053409;28;20040;-62
2021/10/24 00:46:05;;;;;;;10.38;6.38;;;;;;;;;;5048369;28;20466;-61
2021/10/24 00:48:51;;;;;;;9.18;5.93;;;;;;;;;;5067182;28;20479;-62
2021/10/24 00:51:36;;;;;;;8.38;5.22;;;;;;;;;;5051825;28;20091;-65
2021/10/24 00:54:22;;;;;;;9.57;4.97;;;;;;;;;;5063114;28;20021;-70
2021/10/24 00:57:08;;;;;;;9.68;6.07;;;;;;;;;;5051003;28;20034;-81
2021/10/24 00:59:53;;;;;;;11.90;6.55;;;;;;;;;;5067393;28;20016;-80
2021/10/24 01:02:38;;;;;;;9.43;5.38;;;;;;;;;;5066376;28;20032;-81
2021/10/24 01:05:24;;;;;;;10.70;6.70;;;;;;;;;;5050544;28;20028;-79
2021/10/24 01:08:09;;;;;;;10.65;5.65;;;;;;;;;;5055246;28;20056;-79
2021/10/24 01:10:55;;;;;;;10.45;6.07;;;;;;;;;;5048420;28;20683;-60
2021/10/24 01:13:40;;;;;;;13.45;6.60;;;;;;;;;;5058532;28;20029;-66
2021/10/24 01:16:25;;;;;;;9.65;5.88;;;;;;;;;;5064256;28;20048;-65
2021/10/24 01:19:11;;;;;;;9.45;5.32;;;;;;;;;;5049984;28;20160;-67
2021/10/24 01:21:57;;;;;;;9.70;5.90;;;;;;;;;;5048034;28;20021;-65
2021/10/24 01:24:42;;;;;;;10.07;5.80;;;;;;;;;;5077179;28;20036;-67
2021/10/24 01:27:27;;;;;;;9.98;5.18;;;;;;;;;;5067315;28;20043;-67
2021/10/24 01:30:13;;;;;;;10.52;5.38;;;;;;;;;;5066363;28;20040;-60
2021/10/24 01:32:58;;;;;;;11.65;5.57;;;;;;;;;;5060653;28;20082;-67
2021/10/24 01:35:51;;;;;;;13.75;4.95;;;;;;;;;;5057952;28;20061;-66
2021/10/24 01:38:37;;;;;;;13.55;6.15;;;;;;;;;;5053410;28;20056;-67
2021/10/24 01:41:28;;;;;;;13.07;6.50;;;;;;;;;;5070729;28;20121;-66
2021/10/24 01:44:14;;;;;;;7.82;4.35;;;;;;;;;;5070245;28;20498;-67
2021/10/24 01:47:00;;;;;;;9.45;4.78;;;;;;;;;;5058675;28;20049;-67
2021/10/24 01:49:45;;;;;;;8.85;5.85;;;;;;;;;;5062253;28;20354;-68
2021/10/24 01:52:30;;;;;;;11.75;5.60;;;;;;;;;;5044098;28;20155;-64
2021/10/24 01:55:16;;;;;;;10.15;5.07;;;;;;;;;;5061020;28;20499;-67
2021/10/24 01:58:01;;;;;;;8.32;5.40;;;;;;;;;;5070500;28;20036;-65
2021/10/24 02:00:48;;;;;;;12.15;5.57;;;;;;;;;;5064213;28;20025;-64
2021/10/24 02:03:35;;;;;;;12.88;5.38;;;;;;;;;;5051281;28;20029;-66
2021/10/24 02:06:21;;;;;;;8.95;5.47;;;;;;;;;;5080020;28;20573;-64
2021/10/24 02:09:06;;;;;;;13.40;6.38;;;;;;;;;;5064950;28;20560;-59
2021/10/24 02:11:51;;;;;;;11.57;5.85;;;;;;;;;;5045603;28;20043;-60
2021/10/24 02:14:36;;;;;;;10.43;6.72;;;;;;;;;;5052933;28;20491;-61
2021/10/24 02:17:22;;;;;;;12.38;6.60;;;;;;;;;;5050998;28;20064;-59
2021/10/24 02:20:08;;;;;;;10.15;5.53;;;;;;;;;;5062713;28;20424;-60
2021/10/24 02:22:53;;;;;;;13.38;6.25;;;;;;;;;;5064862;28;20262;-58
2021/10/24 02:25:38;;;;;;;11.23;5.82;;;;;;;;;;5062408;28;20031;-78
2021/10/24 02:28:23;;;;;;;14.05;5.93;;;;;;;;;;5069798;28;20409;-77
2021/10/24 02:31:09;;;;;;;9.90;5.57;;;;;;;;;;5064132;28;20060;-75
2021/10/24 02:33:54;;;;;;;8.80;5.10;;;;;;;;;;5069912;28;20032;-75
2021/10/24 02:36:39;;;;;;;10.57;5.10;;;;;;;;;;5060204;28;20600;-75
2021/10/24 02:39:24;;;;;;;11.32;5.80;;;;;;;;;;5050218;28;20040;-77
2021/10/24 02:42:10;;;;;;;9.38;5.53;;;;;;;;;;5059613;28;20125;-77
2021/10/24 02:44:55;;;;;;;8.27;5.00;;;;;;;;;;5054206;28;20029;-62
2021/10/24 02:47:41;;;;;;;8.63;4.68;;;;;;;;;;5051878;28;20044;-63
2021/10/24 02:50:26;;;;;;;9.68;5.55;;;;;;;;;;5058645;28;20060;-62
2021/10/24 02:53:11;;;;;;;10.60;5.35;;;;;;;;;;5068220;28;20033;-62
2021/10/24 02:55:56;;;;;;;8.82;5.45;;;;;;;;;;5069144;28;20020;-62
2021/10/24 02:58:42;;;;;;;10.98;5.22;;;;;;;;;;5058973;28;20262;-61
2021/10/24 03:01:27;;;;;;;8.30;5.50;;;;;;;;;;5050116;28;20086;-62
2021/10/24 03:04:12;;;;;;;11.07;5.35;;;;;;;;;;5064016;28;20032;-61
2021/10/24 03:06:58;;;;;;;9.40;4.82;;;;;;;;;;5041280;28;20050;-60
2021/10/24 03:09:43;;;;;;;8.93;5.32;;;;;;;;;;5069549;28;20021;-60
2021/10/24 03:12:28;;;;;;;10.93;5.38;;;;;;;;;;5059648;28;20060;-61
2021/10/24 03:15:13;;;;;;;11.10;5.93;;;;;;;;;;5068735;28;20440;-64
2021/10/24 03:17:59;;;;;;;10.65;5.68;;;;;;;;;;5061858;28;20021;-63
2021/10/24 03:20:44;;;;;;;14.20;6.15;;;;;;;;;;5049804;28;20025;-63
2021/10/24 03:23:29;;;;;;;12.65;5.57;;;;;;;;;;5058069;28;20244;-61
2021/10/24 03:26:14;;;;;;;10.75;5.35;;;;;;;;;;5082115;28;20032;-60
2021/10/24 03:29:00;;;;;;;9.77;5.35;;;;;;;;;;5060146;28;20140;-65
2021/10/24 03:31:45;;;;;;;12.35;5.63;;;;;;;;;;5068634;28;20024;-61
2021/10/24 03:34:30;;;;;;;9.32;5.38;;;;;;;;;;5058896;28;20021;-60
2021/10/24 03:37:16;;;;;;;10.85;5.63;;;;;;;;;;5049084;28;20124;-60
2021/10/24 03:40:01;;;;;;;9.98;5.38;;;;;;;;;;5065106;28;20025;-62
2021/10/24 03:42:47;;;;;;;12.88;5.55;;;;;;;;;;5066546;28;20028;-60
2021/10/24 03:45:32;;;;;;;7.00;4.80;;;;;;;;;;5049398;28;20037;-63
2021/10/24 03:48:17;;;;;;;9.90;4.80;;;;;;;;;;5048758;28;20468;-61
2021/10/24 03:51:03;;;;;;;11.43;5.22;;;;;;;;;;5049534;28;20410;-60
2021/10/24 03:53:48;;;;;;;11.82;5.65;;;;;;;;;;5063005;28;20451;-64
2021/10/24 03:56:33;;;;;;;10.57;6.50;;;;;;;;;;5068408;28;20050;-67
2021/10/24 03:59:18;;;;;;;11.80;5.22;;;;;;;;;;5066749;28;20067;-77
2021/10/24 04:02:04;;;;;;;11.25;6.13;;;;;;;;;;5067872;28;20383;-60
2021/10/24 04:04:49;;;;;;;8.55;4.88;;;;;;;;;;5066932;28;20029;-60
2021/10/24 04:07:34;;;;;;;7.40;4.72;;;;;;;;;;5062594;28;20032;-60
2021/10/24 04:10:20;;;;;;;10.23;6.13;;;;;;;;;;5061447;28;20098;-61
2021/10/24 04:13:05;;;;;;;8.98;4.45;;;;;;;;;;5065022;28;20046;-60
2021/10/24 04:15:52;;;;;;;9.43;6.13;;;;;;;;;;5066793;28;20043;-69
2021/10/24 04:18:37;;;;;;;12.50;5.90;;;;;;;;;;5068030;28;20020;-78
2021/10/24 04:21:22;;;;;;;8.82;4.85;;;;;;;;;;5052554;28;20032;-78
2021/10/24 04:24:08;;;;;;;9.52;5.22;;;;;;;;;;5048717;28;20048;-78
2021/10/24 04:26:53;;;;;;;10.95;5.82;;;;;;;;;;5052427;28;20423;-78
2021/10/24 04:29:38;;;;;;;15.98;6.93;;;;;;;;;;5063435;28;20479;-78
2021/10/24 04:32:24;;;;;;;10.38;5.57;;;;;;;;;;5050155;28;20033;-77
2021/10/24 04:35:11;;;;;;;10.95;5.18;;;;;;;;;;5060500;28;20027;-61
2021/10/24 04:37:56;;;;;;;8.85;5.35;;;;;;;;;;5050426;28;20032;-65
2021/10/24 04:40:41;;;;;;;10.55;5.22;;;;;;;;;;5065627;28;20033;-66
2021/10/24 04:43:27;;;;;;;9.15;4.82;;;;;;;;;;5054803;28;20068;-65
2021/10/24 04:46:12;;;;;;;13.23;5.82;;;;;;;;;;5052722;28;20055;-66
2021/10/24 04:48:57;;;;;;;9.32;5.00;;;;;;;;;;5067514;28;20387;-66
2021/10/24 04:51:43;;;;;;;10.85;5.55;;;;;;;;;;5052197;28;20047;-63
2021/10/24 04:54:28;;;;;;;9.18;5.25;;;;;;;;;;5067760;28;20074;-61
2021/10/24 04:57:13;;;;;;;11.02;4.85;;;;;;;;;;5060253;28;20032;-77
2021/10/24 04:59:58;;;;;;;10.23;5.65;;;;;;;;;;5048595;28;20021;-76
2021/10/24 05:02:44;;;;;;;11.43;7.05;;;;;;;;;;5048396;28;20040;-78
2021/10/24 05:05:29;;;;;;;9.82;5.60;;;;;;;;;;5054099;28;20436;-77
2021/10/24 05:08:14;;;;;;;10.35;5.85;;;;;;;;;;5059758;28;20426;-78
2021/10/24 05:10:59;;;;;;;9.80;5.05;;;;;;;;;;5061427;28;20442;-69
2021/10/24 05:13:45;;;;;;;9.95;4.85;;;;;;;;;;5068788;28;20052;-60
2021/10/24 05:16:30;;;;;;;11.68;5.40;;;;;;;;;;5071169;28;20468;-63
2021/10/24 05:19:16;;;;;;;10.20;5.60;;;;;;;;;;5070944;28;20043;-62
2021/10/24 05:22:01;;;;;;;9.25;5.35;;;;;;;;;;5065402;28;20024;-64
2021/10/24 05:24:47;;;;;;;10.68;5.72;;;;;;;;;;5063186;28;20052;-64
2021/10/24 05:27:32;;;;;;;8.63;4.93;;;;;;;;;;5063542;28;20182;-61
2021/10/24 05:30:17;;;;;;;13.80;6.65;;;;;;;;;;5051710;28;20044;-62
2021/10/24 05:33:03;;;;;;;10.27;5.25;;;;;;;;;;5056223;28;20024;-62
2021/10/24 05:35:49;;;;;;;10.65;5.50;;;;;;;;;;5055969;28;20029;-61
2021/10/24 05:38:34;;;;;;;8.93;5.82;;;;;;;;;;5059003;28;20035;-60
2021/10/24 05:41:20;;;;;;;8.95;4.85;;;;;;;;;;5070788;28;20040;-64
2021/10/24 05:44:05;;;;;;;10.70;5.47;;;;;;;;;;5066073;28;20081;-63
2021/10/24 05:46:52;;;;;;;12.85;6.00;;;;;;;;;;5069953;28;20064;-68
2021/10/24 05:49:38;;;;;;;11.23;5.28;;;;;;;;;;5053131;28;20380;-80
2021/10/24 05:52:23;;;;;;;12.82;6.45;;;;;;;;;;5066779;28;20044;-66
2021/10/24 05:55:09;;;;;;;8.48;5.28;;;;;;;;;;5058154;28;20124;-65
2021/10/24 05:57:54;;;;;;;16.08;6.30;;;;;;;;;;5064702;28;20024;-65
2021/10/24 06:00:39;;;;;;;8.82;4.82;;;;;;;;;;5068811;28;20479;-70
2021/10/24 06:03:25;;;;;;;12.05;6.10;;;;;;;;;;5051989;28;20028;-65
2021/10/24 06:06:10;;;;;;;10.13;5.53;;;;;;;;;;5065506;28;20118;-60
2021/10/24 06:08:55;;;;;;;9.52;5.70;;;;;;;;;;5067084;28;20044;-73
2021/10/24 06:11:54;;;;;;;9.57;5.45;;;;;;;;;;5067294;28;20028;-69
2021/10/24 06:14:40;;;;;;;9.77;4.90;;;;;;;;;;5044607;28;20032;-69
2021/10/24 06:17:25;;;;;;;10.32;5.15;;;;;;;;;;5051023;28;20527;-69
2021/10/24 06:20:11;;;;;;;9.93;4.75;;;;;;;;;;5056938;28;20198;-70
2021/10/24 06:22:56;;;;;;;10.75;5.32;;;;;;;;;;5049521;28;20060;-69
2021/10/24 06:25:42;;;;;;;11.18;5.35;;;;;;;;;;5062612;28;20247;-67
2021/10/24 06:28:27;;;;;;;12.00;5.53;;;;;;;;;;5067354;28;20029;-73
2021/10/24 06:31:12;;;;;;;13.40;6.75;;;;;;;;;;5066508;28;20035;-69
2021/10/24 06:33:57;;;;;;;11.23;5.55;;;;;;;;;;5073573;28;20017;-70
2021/10/24 06:36:43;;;;;;;12.57;5.93;;;;;;;;;;5062022;28;20056;-69
2021/10/24 06:39:28;;;;;;;9.75;5.30;;;;;;;;;;5054991;28;20025;-70
2021/10/24 06:42:13;;;;;;;10.77;5.97;;;;;;;;;;5065510;28;20221;-62
2021/10/24 06:44:58;;;;;;;12.18;5.60;;;;;;;;;;5063332;28;20073;-62
2021/10/24 06:47:46;;;;;;;12.80;6.45;;;;;;;;;;5065822;28;20094;-69
2021/10/24 06:50:31;;;;;;;13.82;6.60;;;;;;;;;;5072917;28;20036;-69
2021/10/24 06:53:17;;;;;;;14.90;6.43;;;;;;;;;;5064007;28;20021;-70
2021/10/24 06:56:02;;;;;;;11.85;7.30;;;;;;;;;;5064154;28;20035;-70
2021/10/24 06:58:47;;;;;;;12.77;6.70;;;;;;;;;;5065809;28;20021;-69
2021/10/24 07:01:33;;;;;;;9.52;6.22;;;;;;;;;;5063113;28;20029;-62
2021/10/24 07:04:18;;;;;;;11.50;6.75;;;;;;;;;;5065175;28;20024;-62
2021/10/24 07:07:03;;;;;;;11.10;6.82;;;;;;;;;;5064045;28;20570;-62
2021/10/24 07:09:49;;;;;;;13.63;6.10;;;;;;;;;;5051464;28;20028;-64
2021/10/24 07:12:35;;;;;;;14.25;7.15;;;;;;;;;;5063624;28;20339;-63
2021/10/24 07:15:21;;;;;;;12.75;6.35;;;;;;;;;;5049894;28;20020;-61
2021/10/24 07:18:07;;;;;;;10.98;6.00;;;;;;;;;;5062726;28;20032;-64
2021/10/24 07:20:52;;;;;;;9.18;5.60;;;;;;;;;;5082921;28;20115;-61
2021/10/24 07:23:37;;;;;;;11.25;5.35;;;;;;;;;;5067696;28;20467;-67
2021/10/24 07:26:22;;;;;;;15.48;6.43;;;;;;;;;;5061486;28;20375;-67
2021/10/24 07:29:08;;;;;;;11.60;5.70;;;;;;;;;;5054333;28;20531;-67
2021/10/24 07:31:53;;;;;;;11.05;5.43;;;;;;;;;;5062306;28;20036;-66
2021/10/24 07:34:38;;;;;;;11.27;6.05;;;;;;;;;;5062799;28;20100;-67
2021/10/24 07:37:23;;;;;;;9.98;5.43;;;;;;;;;;5062635;28;20032;-65
2021/10/24 07:40:09;;;;;;;8.90;5.57;;;;;;;;;;5062689;28;20074;-69
2021/10/24 07:42:55;;;;;;;8.98;5.22;;;;;;;;;;5060359;28;20074;-61
2021/10/24 07:45:40;;;;;;;14.93;6.53;;;;;;;;;;5048868;28;20048;-59
2021/10/24 07:48:25;;;;;;;9.65;4.97;;;;;;;;;;5062525;28;20038;-59
2021/10/24 07:51:10;;;;;;;16.02;9.40;;;;;;;;;;5062527;28;20095;-61
2021/10/24 07:53:56;;;;;;;33.35;22.50;;;;;;;;;;5060779;28;20112;-61
2021/10/24 07:56:41;;;;;;;15.02;8.20;;;;;;;;;;5061767;28;20036;-62
2021/10/24 07:59:27;;;;;;;14.00;6.15;;;;;;;;;;5054360;28;20060;-60
2021/10/24 08:02:13;;;;;;;8.95;5.88;;;;;;;;;;5059848;28;20508;-61
2021/10/24 08:04:58;;;;;;;19.70;7.45;;;;;;;;;;5049974;28;20392;-60
2021/10/24 08:07:44;;;;;;;11.77;5.70;;;;;;;;;;5051087;28;20016;-60
2021/10/24 08:10:29;;;;;;;11.07;6.05;;;;;;;;;;5068197;28;20032;-60
2021/10/24 08:13:15;;;;;;;11.25;6.40;;;;;;;;;;5066251;28;20023;-63
2021/10/24 08:16:00;;;;;;;9.40;5.30;;;;;;;;;;5059200;28;20056;-69
2021/10/24 08:18:46;;;;;;;14.40;7.25;;;;;;;;;;5048954;28;20103;-61
2021/10/24 08:21:32;;;;;;;13.10;7.85;;;;;;;;;;5067886;28;20028;-61
2021/10/24 08:24:18;;;;;;;12.32;6.28;;;;;;;;;;5066363;28;20033;-62
2021/10/24 08:27:03;;;;;;;16.10;7.32;;;;;;;;;;5057715;28;20483;-62
2021/10/24 08:29:49;;;;;;;13.20;7.55;;;;;;;;;;5059221;28;20090;-59
2021/10/24 08:32:34;;;;;;;31.05;22.40;;;;;;;;;;5064558;28;20029;-64
2021/10/24 08:35:20;;;;;;;21.00;12.07;;;;;;;;;;5051230;28;20056;-62
2021/10/24 08:38:05;;;;;;;13.82;8.65;;;;;;;;;;5063123;28;20095;-71
2021/10/24 08:40:51;;;;;;;13.98;8.50;;;;;;;;;;5061596;28;20040;-75
2021/10/24 08:43:38;;;;;;;14.40;7.88;;;;;;;;;;5048367;28;20391;-68
2021/10/24 08:46:23;;;;;;;15.60;7.20;;;;;;;;;;5062991;28;20461;-67
2021/10/24 08:49:09;;;;;;;13.38;6.90;;;;;;;;;;5061949;28;20680;-68
2021/10/24 08:51:54;;;;;;;11.13;6.07;;;;;;;;;;5060918;28;20052;-64
2021/10/24 08:54:41;;;;;;;12.25;7.25;;;;;;;;;;5062864;28;20032;-73
2021/10/24 08:57:29;;;;;;;12.40;5.90;;;;;;;;;;5064191;28;20051;-76
2021/10/24 09:00:15;;;;;;;18.23;6.60;;;;;;;;;;5057187;28;20044;-76
2021/10/24 09:03:03;;;;;;;10.82;5.60;;;;;;;;;;5067749;28;20125;-81
2021/10/24 09:05:49;;;;;;;11.75;6.20;;;;;;;;;;5061335;28;20024;-78
2021/10/24 09:08:37;;;;;;;8.45;5.28;;;;;;;;;;5061862;28;20039;-77
2021/10/24 09:11:23;;;;;;;9.40;5.55;;;;;;;;;;5057958;28;20430;-69
2021/10/24 09:14:09;;;;;;;9.32;4.70;;;;;;;;;;5061795;28;20107;-64
2021/10/24 09:16:55;;;;;;;8.45;4.80;;;;;;;;;;5064651;28;20028;-64
2021/10/24 09:19:42;;;;;;;11.50;5.25;;;;;;;;;;5060312;28;20024;-65
2021/10/24 09:22:29;;;;;;;11.15;5.20;;;;;;;;;;5062802;28;20163;-65
2021/10/24 09:25:19;;;;;;;10.55;5.57;;;;;;;;;;5076991;28;20020;-64
2021/10/24 09:28:05;;;;;;;10.20;4.85;;;;;;;;;;5055096;28;20029;-62
2021/10/24 09:30:58;;;;;;;11.98;5.93;;;;;;;;;;5066721;28;20039;-63
2021/10/24 09:33:45;;;;;;;7.78;5.20;;;;;;;;;;5072075;28;20020;-63
2021/10/24 09:36:30;;;;;;;8.95;5.60;;;;;;;;;;5054753;28;20021;-62
2021/10/24 09:39:16;;;;;;;10.23;5.63;;;;;;;;;;5066912;28;20032;-64
2021/10/24 09:42:12;;;;;;;7.93;5.38;;;;;;;;;;5072565;28;20086;-64
2021/10/24 09:45:06;;;;;;;9.65;5.35;;;;;;;;;;5065628;28;20062;-62
2021/10/24 09:47:51;;;;;;;8.13;5.50;;;;;;;;;;5064944;28;20047;-78
2021/10/24 09:50:39;;;;;;;8.68;5.22;;;;;;;;;;5064457;28;20037;-78
2021/10/24 09:53:26;;;;;;;11.15;5.30;;;;;;;;;;5065704;28;20044;-78
2021/10/24 09:56:17;;;;;;;8.48;5.45;;;;;;;;;;5065137;28;20036;-79
2021/10/24 09:59:03;;;;;;;10.18;5.00;;;;;;;;;;5064481;28;20063;-79
2021/10/24 10:01:52;;;;;;;6.97;4.57;;;;;;;;;;5053367;28;20452;-78
2021/10/24 10:04:37;;;;;;;9.55;5.75;;;;;;;;;;5065138;28;20472;-62
2021/10/24 10:07:22;;;;;;;9.77;6.18;;;;;;;;;;5062890;28;20044;-69
2021/10/24 10:10:08;;;;;;;8.57;7.72;;;;;;;;;;5043510;28;20471;-63
2021/10/24 10:12:55;;;;;;;10.35;9.35;;;;;;;;;;5072444;28;20028;-65
2021/10/24 10:15:42;;;;;;;7.68;6.93;;;;;;;;;;5067560;28;20082;-64
2021/10/24 10:18:27;;;;;;;5.75;3.28;;;;;;;;;;5049607;28;20498;-66
2021/10/24 10:21:23;;;;;;;8.23;3.63;;;;;;;;;;5050852;28;20033;-64
2021/10/24 10:24:10;;;;;;;6.93;3.10;;;;;;;;;;5050585;28;20063;-60
2021/10/24 10:26:55;;;;;;;5.28;3.70;;;;;;;;;;5050840;28;20029;-70
2021/10/24 10:30:00;;;;;;;10.02;3.40;;;;;;;;;;5071301;28;20036;-68
2021/10/24 10:32:47;;;;;;;4.88;3.38;;;;;;;;;;5056494;28;20033;-71
2021/10/24 10:35:32;;;;;;;6.05;2.92;;;;;;;;;;5054170;28;20029;-71
2021/10/24 10:38:33;;;;;;;4.72;2.92;;;;;;;;;;5054174;28;20037;-74
2021/10/24 10:41:33;;;;;;;5.68;3.03;;;;;;;;;;5051987;28;20055;-67
2021/10/24 10:44:18;;;;;;;7.38;3.10;;;;;;;;;;5060982;28;20036;-67
2021/10/24 10:47:22;;;;;;;4.25;2.88;;;;;;;;;;5055765;28;20059;-65
2021/10/24 10:50:26;;;;;;;11.60;7.07;;;;;;;;;;5054449;28;20104;-65
2021/10/24 10:53:24;;;;;;;8.02;4.05;;;;;;;;;;5068999;28;20017;-65
2021/10/24 10:56:12;;;;;;;7.10;3.20;;;;;;;;;;5062380;28;20039;-67
2021/10/24 10:59:04;;;;;;;7.25;2.97;;;;;;;;;;5059034;28;20025;-68
2021/10/24 11:01:49;;;;;;;7.60;4.13;;;;;;;;;;5063419;28;20032;-59
2021/10/24 11:04:45;;;;;;;6.28;3.22;;;;;;;;;;5061162;28;20036;-59
2021/10/24 11:07:34;;;;;;;3.95;2.67;;;;;;;;;;5066435;28;20031;-59
2021/10/24 11:10:38;;;;;;;8.07;3.35;;;;;;;;;;5066308;28;20036;-59
2021/10/24 11:13:43;;;;;;;7.55;3.65;;;;;;;;;;5060451;28;20047;-60
2021/10/24 11:16:32;;;;;;;7.93;3.80;;;;;;;;;;5064378;28;20024;-61
2021/10/24 11:22:20;;;;;;;5.45;3.08;;;;;;;;;;5074765;28;20036;-71
2021/10/24 11:25:06;;;;;;;6.57;3.22;;;;;;;;;;5066599;28;20021;-76
2021/10/24 11:27:51;;;;;;;22.92;17.33;;;;;;;;;;5065755;28;20119;-74
2021/10/24 11:30:38;;;;;;;16.63;10.45;;;;;;;;;;5082004;28;20025;-75
2021/10/24 11:33:23;;;;;;;6.55;3.33;;;;;;;;;;5067211;28;20040;-76
2021/10/24 11:36:08;;;;;;;7.13;3.40;;;;;;;;;;5063201;28;20439;-73
2021/10/24 11:39:01;;;;;;;6.18;3.53;;;;;;;;;;5067865;28;20028;-64
2021/10/24 11:41:46;;;;;;;6.22;3.80;;;;;;;;;;5063481;28;20028;-62
2021/10/24 11:44:32;;;;;;;6.80;4.55;;;;;;;;;;5059786;28;20070;-62
2021/10/24 11:47:17;;;;;;;10.70;5.30;;;;;;;;;;5046915;28;20053;-66
2021/10/24 11:50:02;;;;;;;10.43;6.50;;;;;;;;;;5054168;28;20049;-63
2021/10/24 11:52:57;;;;;;;33.72;21.65;;;;;;;;;;5060018;28;20030;-64
2021/10/24 11:55:43;;;;;;;16.55;7.80;;;;;;;;;;5067313;28;20035;-60
2021/10/24 12:02:06;;;;;;;18.27;8.40;;;;;;;;;;5014155;28;20135;-64
2021/10/24 12:04:51;;;;;;;12.40;5.35;;;;;;;;;;5018752;28;20423;-64
2021/10/24 12:07:36;;;;;;;12.48;5.22;;;;;;;;;;5016279;28;20040;-65
2021/10/24 12:10:33;;;;;;;6.10;3.45;;;;;;;;;;5013477;28;20072;-65
2021/10/24 12:13:31;;;;;;;10.60;5.78;;;;;;;;;;5018509;28;20358;-60
2021/10/24 12:16:26;;;;;;;8.10;3.92;;;;;;;;;;4999711;28;20104;-63
2021/10/24 12:19:15;;;;;;;8.15;4.28;;;;;;;;;;4998706;28;20496;-64
2021/10/24 12:22:05;;;;;;;10.25;3.70;;;;;;;;;;5015601;28;20033;-63
2021/10/24 12:24:50;;;;;;;8.50;4.10;;;;;;;;;;5007262;28;20025;-65
2021/10/24 12:27:37;;;;;;;8.43;4.45;;;;;;;;;;5008109;28;20034;-64
2021/10/24 12:30:23;;;;;;;5.40;3.28;;;;;;;;;;4995225;28;20129;-63
2021/10/24 12:33:16;;;;;;;7.68;3.47;;;;;;;;;;5051015;28;20037;-63
2021/10/24 12:36:03;;;;;;;5.55;3.47;;;;;;;;;;5054077;28;20043;-58
2021/10/24 12:38:48;;;;;;;8.80;3.70;;;;;;;;;;5061825;28;20021;-62
2021/10/24 12:41:44;;;;;;;7.60;3.40;;;;;;;;;;5060805;28;20392;-61
2021/10/24 12:44:32;;;;;;;7.50;3.45;;;;;;;;;;5061087;28;20029;-60
2021/10/24 12:47:16;;;;;;;7.30;3.67;;;;;;;;;;5070388;28;20052;-60
2021/10/24 12:49:55;;;;;;;5.85;3.42;;;;;;;;;;5056632;28;20058;-60
2021/10/24 12:52:20;;;;;;;10.13;4.47;;;;;;;;;;5061283;28;20036;-61
2021/10/24 12:55:06;;;;;;;19.25;12.70;;;;;;;;;;5060793;28;20032;-72
2021/10/24 12:57:51;;;;;;;6.07;3.85;;;;;;;;;;5046790;28;20040;-69
2021/10/24 13:00:37;;;;;;;8.05;3.42;;;;;;;;;;5052575;28;20017;-66
2021/10/24 13:03:22;;;;;;;6.63;3.70;;;;;;;;;;5063855;28;20036;-68
2021/10/24 13:06:07;;;;;;;8.77;3.85;;;;;;;;;;5063893;28;20364;-69
2021/10/24 13:08:53;;;;;;;6.88;3.33;;;;;;;;;;5048461;28;20029;-70
2021/10/24 13:11:38;;;;;;;11.55;3.63;;;;;;;;;;5052346;28;20043;-72
2021/10/24 13:14:24;;;;;;;6.68;2.83;;;;;;;;;;5047713;28;20502;-65
2021/10/24 13:17:09;;;;;;;8.98;3.03;;;;;;;;;;5059754;28;20107;-62
2021/10/24 13:19:56;;;;;;;7.03;3.45;;;;;;;;;;5050678;28;20036;-65
2021/10/24 13:22:54;;;;;;;5.97;3.10;;;;;;;;;;5063347;28;20495;-63
2021/10/24 13:25:40;;;;;;;5.93;3.20;;;;;;;;;;5061521;28;20185;-64
2021/10/24 13:28:25;;;;;;;7.05;2.70;;;;;;;;;;5059181;28;20033;-65
2021/10/24 13:31:10;;;;;;;6.00;3.70;;;;;;;;;;5058850;28;20396;-64
2021/10/24 13:33:56;;;;;;;8.48;3.60;;;;;;;;;;5052082;28;20036;-63
2021/10/24 13:36:41;;;;;;;5.65;3.10;;;;;;;;;;5064931;28;20032;-64
2021/10/24 13:39:26;;;;;;;10.90;3.60;;;;;;;;;;5054844;28;20029;-62
2021/10/24 13:42:12;;;;;;;7.57;3.00;;;;;;;;;;5066835;28;20028;-64
2021/10/24 13:44:58;;;;;;;5.72;3.00;;;;;;;;;;5064741;28;20430;-65
2021/10/24 13:47:43;;;;;;;6.57;3.00;;;;;;;;;;5056277;28;20090;-64
2021/10/24 13:50:29;;;;;;;7.68;3.45;;;;;;;;;;5062916;28;20028;-63
2021/10/24 13:53:14;;;;;;;7.57;3.13;;;;;;;;;;5059865;28;20424;-64
2021/10/24 13:55:59;;;;;;;6.05;2.83;;;;;;;;;;5053881;28;20498;-63
2021/10/24 13:58:45;;;;;;;4.93;2.63;;;;;;;;;;5056171;28;20400;-63
2021/10/24 14:01:30;;;;;;;5.72;2.35;;;;;;;;;;5052993;28;20021;-63
2021/10/24 14:04:15;;;;;;;7.53;2.70;;;;;;;;;;5065696;28;20035;-64
2021/10/24 14:07:01;;;;;;;6.18;2.92;;;;;;;;;;5063221;28;20031;-69
2021/10/24 14:09:50;;;;;;;15.15;10.27;;;;;;;;;;5063711;28;20157;-70
2021/10/24 14:12:35;;;;;;;19.23;11.23;;;;;;;;;;5065221;28;20032;-72
2021/10/24 14:15:20;;;;;;;7.85;3.72;;;;;;;;;;5065425;28;20020;-69
2021/10/24 14:18:05;;;;;;;5.85;3.20;;;;;;;;;;5066291;28;20035;-71
2021/10/24 14:20:51;;;;;;;5.53;3.33;;;;;;;;;;5064923;28;20150;-71
2021/10/24 14:23:36;;;;;;;5.15;2.60;;;;;;;;;;5070255;28;20032;-67
2021/10/24 14:26:23;;;;;;;5.82;2.80;;;;;;;;;;5067560;28;20033;-73
2021/10/24 14:29:08;;;;;;;5.18;3.05;;;;;;;;;;5061790;28;20024;-76
2021/10/24 14:31:54;;;;;;;7.18;3.10;;;;;;;;;;5053970;28;20520;-73
2021/10/24 14:34:39;;;;;;;6.35;2.80;;;;;;;;;;5056299;28;20528;-74
2021/10/24 14:37:25;;;;;;;5.63;2.83;;;;;;;;;;5064733;28;20039;-74
2021/10/24 14:40:10;;;;;;;6.47;2.85;;;;;;;;;;5050765;28;20514;-74
2021/10/24 14:42:56;;;;;;;7.55;2.60;;;;;;;;;;5063733;28;20025;-63
2021/10/24 14:45:41;;;;;;;7.28;2.97;;;;;;;;;;5052878;28;20045;-59
2021/10/24 14:48:26;;;;;;;6.53;3.22;;;;;;;;;;5063227;28;20434;-62
2021/10/24 14:51:11;;;;;;;7.95;2.90;;;;;;;;;;5054264;28;20067;-61
2021/10/24 14:53:57;;;;;;;6.90;3.78;;;;;;;;;;5069101;28;20494;-60
2021/10/24 14:56:42;;;;;;;8.07;3.08;;;;;;;;;;5054641;28;20036;-60
2021/10/24 14:59:28;;;;;;;6.55;3.30;;;;;;;;;;5065678;28;20025;-74
2021/10/24 15:02:13;;;;;;;6.50;2.72;;;;;;;;;;5058218;28;20036;-75
2021/10/24 15:04:58;;;;;;;7.15;2.72;;;;;;;;;;5056297;28;20067;-61
2021/10/24 15:07:44;;;;;;;4.75;2.67;;;;;;;;;;5062190;28;20127;-63
2021/10/24 15:10:29;;;;;;;22.52;14.73;;;;;;;;;;5050185;28;20033;-63
2021/10/24 15:13:16;;;;;;;9.40;4.03;;;;;;;;;;5050861;28;20032;-64
2021/10/24 15:16:10;;;;;;;9.10;4.10;;;;;;;;;;5051513;28;20098;-62
2021/10/24 15:21:40;;;;;;;5.63;3.25;;;;;;;;;;5075637;28;20021;-64
2021/10/24 15:24:26;;;;;;;7.18;3.58;;;;;;;;;;5063285;28;20032;-62
2021/10/24 15:27:11;;;;;;;7.50;3.72;;;;;;;;;;5065501;28;20044;-65
2021/10/24 15:29:57;;;;;;;7.35;3.88;;;;;;;;;;5055996;28;20519;-64
2021/10/24 15:32:42;;;;;;;4.90;3.08;;;;;;;;;;5059423;28;20028;-64
2021/10/24 15:35:27;;;;;;;7.07;2.95;;;;;;;;;;5049747;28;20044;-64
2021/10/24 15:38:13;;;;;;;6.78;3.28;;;;;;;;;;5073173;28;20067;-77
2021/10/24 15:40:58;;;;;;;12.77;3.65;;;;;;;;;;5049610;28;20021;-64
2021/10/24 15:43:44;;;;;;;7.28;3.45;;;;;;;;;;5059251;28;20016;-65
2021/10/24 15:46:30;;;;;;;6.38;3.17;;;;;;;;;;5045586;28;20187;-63
2021/10/24 15:49:16;;;;;;;9.85;3.70;;;;;;;;;;5060128;28;20033;-64
2021/10/24 15:52:01;;;;;;;7.18;3.22;;;;;;;;;;5055050;28;20071;-69
2021/10/24 15:54:47;;;;;;;6.38;3.10;;;;;;;;;;5067147;28;20379;-64
2021/10/24 15:57:32;;;;;;;26.23;16.25;;;;;;;;;;5052104;28;20718;-63
2021/10/24 16:00:18;;;;;;;16.13;9.70;;;;;;;;;;5049998;28;20627;-62
2021/10/24 16:03:06;;;;;;;6.47;3.67;;;;;;;;;;5062760;28;20044;-63
2021/10/24 16:05:54;;;;;;;6.07;3.20;;;;;;;;;;5049214;28;20021;-63
2021/10/24 16:08:40;;;;;;;6.38;3.13;;;;;;;;;;5059549;28;20450;-65
2021/10/24 16:11:25;;;;;;;7.85;3.97;;;;;;;;;;5054487;28;20080;-66
2021/10/24 16:14:10;;;;;;;11.60;3.90;;;;;;;;;;5052532;28;20387;-79
2021/10/24 16:16:56;;;;;;;8.13;3.70;;;;;;;;;;5066748;28;20086;-73
2021/10/24 16:19:41;;;;;;;7.78;3.70;;;;;;;;;;5056753;28;20035;-69
2021/10/24 16:22:27;;;;;;;13.07;3.75;;;;;;;;;;5067740;28;20036;-69
2021/10/24 16:25:13;;;;;;;8.77;4.10;;;;;;;;;;5058733;28;20067;-69
2021/10/24 16:27:58;;;;;;;7.95;3.78;;;;;;;;;;5065188;28;20108;-67
2021/10/24 16:30:45;;;;;;;8.63;4.13;;;;;;;;;;5066645;28;21011;-72
2021/10/24 16:33:30;;;;;;;8.98;3.85;;;;;;;;;;5064286;28;20039;-64
2021/10/24 16:36:16;;;;;;;10.20;3.90;;;;;;;;;;5063362;28;20032;-65
2021/10/24 16:39:01;;;;;;;9.10;4.45;;;;;;;;;;5067855;28;20078;-66